Time;durP1;ratioP1;P1;durP2;ratioP2;P2;SDS_P1;SDS_P2;PMS_P1;PMS_P2;Temp;Humidity;BMP_temperature;BMP_pressure;BME280_temperature;BME280_humidity;BME280_pressure;Samples;Min_cycle;Max_cycle;Signal;HPM_P1;HPM_P2
2022/01/25 00:26:32;;;;;;;97.55;34.55;;;2.40;99.90;;;;;;4893231;29;20045;-60
2022/01/25 00:31:33;;;;;;;96.78;34.08;;;2.40;99.90;;;;;;4896932;29;20055;-60
2022/01/25 00:34:02;;;;;;;;;;;2.40;99.90;;;;;;4897003;29;20045;-59
2022/01/25 00:36:30;;;;;;;93.65;32.50;;;2.40;99.90;;;;;;4895753;29;19934;-61
2022/01/25 00:39:03;;;;;;;100.72;35.13;;;2.30;99.90;;;;;;4896752;29;20063;-59
2022/01/25 00:41:34;;;;;;;95.00;32.72;;;2.30;99.90;;;;;;4896004;29;20048;-58
2022/01/25 00:44:02;;;;;;;88.80;33.67;;;2.30;99.90;;;;;;4895536;29;20069;-60
2022/01/25 00:46:30;;;;;;;90.40;31.88;;;2.30;99.90;;;;;;4896731;29;20079;-60
2022/01/25 00:49:03;;;;;;;87.03;33.22;;;2.30;99.90;;;;;;4879807;29;20055;-59
2022/01/25 00:54:12;;;;;;;90.63;32.67;;;2.30;99.90;;;;;;4896376;29;20049;-59
2022/01/25 00:56:44;;;;;;;85.65;31.40;;;2.30;99.90;;;;;;4896656;29;20045;-60
2022/01/25 00:59:18;;;;;;;87.25;33.20;;;2.30;99.90;;;;;;4896251;29;20646;-59
2022/01/25 01:01:48;;;;;;;89.60;30.92;;;2.30;99.90;;;;;;4895264;29;20057;-59
2022/01/25 01:04:18;;;;;;;76.65;29.02;;;2.30;99.90;;;;;;4891920;29;20060;-58
2022/01/25 01:06:47;;;;;;;77.57;30.23;;;2.30;99.90;;;;;;4893873;29;20052;-61
2022/01/25 01:09:21;;;;;;;80.30;30.63;;;2.30;99.90;;;;;;4895150;29;20063;-63
2022/01/25 01:11:59;;;;;;;88.75;32.63;;;2.30;99.90;;;;;;4895764;29;20041;-64
2022/01/25 01:34:37;;;;;;;88.60;30.23;;;2.30;99.90;;;;;;4861406;29;20078;-61
2022/01/25 01:47:47;;;;;;;102.80;33.90;;;2.30;99.90;;;;;;4894257;29;20075;-64
2022/01/25 01:50:29;;;;;;;97.07;33.28;;;2.30;99.90;;;;;;4895571;29;20052;-63
2022/01/25 01:52:59;;;;;;;90.85;33.47;;;2.30;99.90;;;;;;4895280;29;20064;-65
2022/01/25 01:55:31;;;;;;;92.20;33.22;;;2.30;99.90;;;;;;4895123;29;20055;-66
2022/01/25 01:57:59;;;;;;;79.22;32.00;;;2.30;99.90;;;;;;4894811;29;20049;-68
2022/01/25 02:00:37;;;;;;;99.95;35.22;;;2.30;99.90;;;;;;4895909;29;20405;-65
2022/01/25 02:03:09;;;;;;;94.10;34.78;;;2.30;99.90;;;;;;4895710;29;20041;-62
2022/01/25 02:05:43;;;;;;;85.97;31.27;;;2.30;99.90;;;;;;4895312;29;20076;-61
2022/01/25 02:08:13;;;;;;;94.30;35.45;;;2.30;99.90;;;;;;4895168;29;20063;-60
2022/01/25 02:10:43;;;;;;;88.05;32.75;;;2.30;99.90;;;;;;4895397;29;20044;-67
2022/01/25 02:13:14;;;;;;;93.22;33.92;;;2.30;99.90;;;;;;4895329;29;20052;-60
2022/01/25 02:15:46;;;;;;;89.10;32.45;;;2.30;99.90;;;;;;4895409;29;20088;-58
2022/01/25 02:23:44;;;;;;;97.75;33.33;;;2.30;99.90;;;;;;4894778;29;20048;-62
2022/01/25 02:26:14;;;;;;;91.05;34.85;;;2.30;99.90;;;;;;4894788;29;20053;-63
2022/01/25 02:28:44;;;;;;;90.72;33.17;;;2.30;99.90;;;;;;4894846;29;20053;-59
2022/01/25 02:31:15;;;;;;;96.80;34.08;;;2.30;99.90;;;;;;4899531;29;20049;-62
2022/01/25 02:33:44;;;;;;;94.78;35.22;;;2.30;99.90;;;;;;4897939;29;20060;-63
2022/01/25 02:36:15;;;;;;;90.53;36.15;;;2.30;99.90;;;;;;4896466;29;20056;-65
2022/01/25 02:38:43;;;;;;;87.57;33.92;;;2.30;99.90;;;;;;4906837;29;20632;-59
2022/01/25 02:41:13;;;;;;;89.00;33.10;;;2.30;99.90;;;;;;4899882;29;20059;-59
2022/01/25 02:43:43;;;;;;;87.88;34.50;;;2.30;99.90;;;;;;4902524;29;20052;-59
2022/01/25 02:48:51;;;;;;;91.00;35.85;;;2.20;99.90;;;;;;4916026;29;20105;-58
2022/01/25 02:51:21;;;;;;;;;;;2.20;99.90;;;;;;4916369;29;20044;-59
2022/01/25 02:53:49;;;;;;;;;;;2.20;99.90;;;;;;4916987;29;19930;-58
2022/01/25 02:56:17;;;;;;;88.85;32.63;;;2.20;99.90;;;;;;4915300;29;20421;-58
2022/01/25 02:58:46;;;;;;;88.13;34.08;;;2.20;99.90;;;;;;4915989;29;20059;-58
2022/01/25 03:01:15;;;;;;;88.88;33.55;;;2.20;99.90;;;;;;4916426;29;20043;-58
2022/01/25 03:03:43;;;;;;;89.90;35.20;;;2.20;99.90;;;;;;4916358;29;20059;-58
2022/01/25 03:06:19;;;;;;;84.78;33.60;;;2.20;99.90;;;;;;4915992;29;20048;-58
2022/01/25 03:08:52;;;;;;;93.60;34.17;;;2.20;99.90;;;;;;4916308;29;20052;-58
2022/01/25 03:11:25;;;;;;;87.13;34.63;;;2.20;99.90;;;;;;4916159;29;20448;-60
2022/01/25 03:14:00;;;;;;;80.85;32.45;;;2.20;99.90;;;;;;4914768;29;20067;-60
2022/01/25 03:16:43;;;;;;;86.25;34.58;;;2.30;99.90;;;;;;4916136;29;20044;-58
2022/01/25 03:22:01;;;;;;;82.22;32.70;;;2.20;99.90;;;;;;4915025;29;20055;-58
2022/01/25 03:24:32;;;;;;;78.28;31.00;;;2.20;99.90;;;;;;4915948;29;20424;-65
2022/01/25 03:27:00;;;;;;;79.40;32.50;;;2.20;99.90;;;;;;4915727;29;20377;-63
2022/01/25 03:29:28;;;;;;;87.85;32.17;;;2.20;99.90;;;;;;4916017;29;20051;-64
2022/01/25 03:31:56;;;;;;;78.50;31.98;;;2.20;99.90;;;;;;4916049;29;20052;-65
2022/01/25 03:34:26;;;;;;;89.30;34.00;;;2.20;99.90;;;;;;4915885;29;20052;-61
2022/01/25 03:36:54;;;;;;;89.75;34.97;;;2.20;99.90;;;;;;4915797;29;20048;-68
2022/01/25 03:39:30;;;;;;;82.68;32.17;;;2.20;99.90;;;;;;4915944;29;20048;-62
2022/01/25 03:41:58;;;;;;;80.57;32.70;;;2.20;99.90;;;;;;4915751;29;20044;-67
2022/01/25 03:44:26;;;;;;;80.05;32.38;;;2.20;99.90;;;;;;4915806;29;20043;-61
2022/01/25 03:47:01;;;;;;;84.55;32.75;;;2.20;99.90;;;;;;4915347;29;20063;-66
2022/01/25 03:52:38;;;;;;;71.78;29.52;;;2.20;99.90;;;;;;4894443;29;20057;-66
2022/01/25 03:55:07;;;;;;;78.53;29.35;;;2.20;99.90;;;;;;4894183;29;20111;-67
2022/01/25 03:57:35;;;;;;;81.28;32.45;;;2.20;99.90;;;;;;4895260;29;20086;-64
2022/01/25 04:00:04;;;;;;;77.63;29.88;;;2.20;99.90;;;;;;4914324;29;20496;-67
2022/01/25 04:02:49;;;;;;;57.55;23.13;;;2.20;99.90;;;;;;4915438;29;20040;-63
2022/01/25 04:05:32;;;;;;;70.45;29.13;;;2.10;99.90;;;;;;4915481;29;20408;-61
2022/01/25 04:08:01;;;;;;;71.90;28.95;;;2.10;99.90;;;;;;4914172;29;20056;-63
2022/01/25 04:10:32;;;;;;;76.65;28.17;;;2.10;99.90;;;;;;4915529;29;20534;-61
2022/01/25 04:13:00;;;;;;;73.23;28.97;;;2.10;99.90;;;;;;4915465;29;20052;-65
2022/01/25 04:15:29;;;;;;;81.82;29.92;;;2.10;99.90;;;;;;4915218;29;20059;-63
2022/01/25 04:18:23;;;;;;;73.88;29.27;;;2.10;99.90;;;;;;4915340;29;20044;-67
2022/01/25 04:21:08;;;;;;;74.68;28.45;;;2.10;99.90;;;;;;4914154;29;20060;-63
2022/01/25 04:26:26;;;;;;;;;;;2.10;99.90;;;;;;4915321;29;20510;-67
2022/01/25 04:29:00;;;;;;;73.63;29.42;;;2.10;99.90;;;;;;4915112;29;19923;-65
2022/01/25 04:31:28;;;;;;;74.70;26.17;;;2.10;99.90;;;;;;4915420;29;20056;-66
2022/01/25 04:55:56;;;;;;;66.15;24.65;;;2.00;99.90;;;;;;4913742;29;20056;-63
2022/01/25 04:58:39;;;;;;;64.88;27.25;;;2.00;99.90;;;;;;4914840;29;20432;-64
2022/01/25 05:01:07;;;;;;;70.30;28.50;;;2.00;99.90;;;;;;4915018;29;20052;-64
2022/01/25 05:03:54;;;;;;;72.28;26.45;;;2.00;99.90;;;;;;4914991;29;20064;-65
2022/01/25 05:06:23;;;;;;;71.55;27.10;;;2.00;99.90;;;;;;4914878;29;20067;-60
2022/01/25 05:08:55;;;;;;;71.78;29.02;;;2.00;99.90;;;;;;4914881;29;20059;-61
2022/01/25 05:11:33;;;;;;;76.30;27.67;;;1.90;99.90;;;;;;4913733;29;20055;-60
2022/01/25 05:16:46;;;;;;;65.05;25.40;;;1.90;99.90;;;;;;4918249;29;20056;-63
2022/01/25 05:22:18;;;;;;;70.25;26.77;;;2.00;99.90;;;;;;4918184;29;20071;-64
2022/01/25 05:24:49;;;;;;;62.95;25.92;;;1.90;99.90;;;;;;4918083;29;20063;-62
2022/01/25 05:27:20;;;;;;;65.40;26.60;;;1.90;99.90;;;;;;4918034;29;20063;-66
2022/01/25 05:29:49;;;;;;;66.70;26.25;;;2.00;99.90;;;;;;4918103;29;20495;-59
2022/01/25 05:32:17;;;;;;;70.30;27.83;;;2.00;99.90;;;;;;4917953;29;20134;-60
2022/01/25 05:34:45;;;;;;;68.40;25.63;;;2.00;99.90;;;;;;4918221;29;20048;-61
2022/01/25 05:37:14;;;;;;;66.20;26.02;;;2.00;99.90;;;;;;4917855;29;20098;-63
2022/01/25 05:39:42;;;;;;;66.53;26.23;;;2.00;99.90;;;;;;4917952;29;20048;-62
2022/01/25 05:42:21;;;;;;;68.32;26.55;;;2.00;99.90;;;;;;4917882;29;20503;-59
2022/01/25 05:47:26;;;;;;;62.70;23.08;;;2.00;99.90;;;;;;4911509;29;20045;-61
2022/01/25 05:49:54;;;;;;;66.45;25.67;;;2.00;99.90;;;;;;4894305;29;20048;-61
2022/01/25 05:52:24;;;;;;;62.47;24.23;;;2.00;99.90;;;;;;4895519;29;20651;-59
2022/01/25 05:54:51;;;;;;;66.75;25.02;;;1.90;99.90;;;;;;4895471;29;20044;-61
2022/01/25 05:57:19;;;;;;;60.83;22.63;;;1.90;99.90;;;;;;4895322;29;20071;-62
2022/01/25 05:59:47;;;;;;;65.72;24.13;;;2.00;99.90;;;;;;4895213;29;20056;-60
2022/01/25 06:02:18;;;;;;;65.07;25.42;;;1.90;99.90;;;;;;4894863;29;20051;-59
2022/01/25 06:04:47;;;;;;;65.95;24.95;;;1.90;99.90;;;;;;4892438;29;20413;-60
2022/01/25 06:07:18;;;;;;;60.72;23.08;;;1.90;99.90;;;;;;4891900;29;20048;-62
2022/01/25 06:09:50;;;;;;;66.13;23.60;;;1.90;99.90;;;;;;4894343;29;20056;-61
2022/01/25 06:12:22;;;;;;;56.78;20.08;;;1.90;99.90;;;;;;4894967;29;20055;-61
2022/01/25 06:14:50;;;;;;;55.90;22.67;;;1.90;99.90;;;;;;4893607;29;20055;-59
2022/01/25 06:17:19;;;;;;;59.55;22.63;;;1.90;99.90;;;;;;4894867;29;20253;-60
2022/01/25 06:19:47;;;;;;;67.93;23.98;;;1.90;99.90;;;;;;4913601;29;20067;-59
2022/01/25 06:22:30;;;;;;;60.58;21.90;;;1.90;99.90;;;;;;4909410;29;20629;-63
2022/01/25 06:25:01;;;;;;;64.47;22.88;;;1.90;99.90;;;;;;4894107;29;20525;-63
2022/01/25 06:27:29;;;;;;;61.92;22.05;;;1.90;99.90;;;;;;4891765;29;20049;-59
2022/01/25 06:30:03;;;;;;;65.35;24.23;;;1.90;99.90;;;;;;4891908;29;20052;-63
2022/01/25 06:32:31;;;;;;;67.63;25.17;;;1.90;99.90;;;;;;4893844;29;20045;-62
2022/01/25 06:35:03;;;;;;;62.65;23.33;;;1.90;99.90;;;;;;4912690;29;20279;-63
2022/01/25 06:37:37;;;;;;;69.82;24.33;;;1.90;99.90;;;;;;4904945;29;20535;-63
2022/01/25 06:40:09;;;;;;;63.65;24.08;;;1.90;99.90;;;;;;4891386;29;20044;-61
2022/01/25 06:42:38;;;;;;;70.68;25.35;;;1.90;99.90;;;;;;4891061;29;20049;-58
2022/01/25 06:45:13;;;;;;;70.10;24.80;;;1.90;99.90;;;;;;4891510;29;20409;-60
2022/01/25 06:47:43;;;;;;;64.25;25.23;;;1.90;99.90;;;;;;4893587;29;20067;-62
2022/01/25 06:50:16;;;;;;;67.22;25.83;;;1.90;99.90;;;;;;4894546;29;20053;-59
2022/01/25 06:52:44;;;;;;;;;;;1.90;99.90;;;;;;4900790;29;20052;-60
2022/01/25 06:55:33;;;;;;;68.25;25.60;;;2.00;99.90;;;;;;4893150;29;19923;-62
2022/01/25 06:58:01;;;;;;;62.25;23.42;;;1.90;99.90;;;;;;4894296;29;20048;-62
2022/01/25 07:00:30;;;;;;;64.20;23.75;;;1.90;99.90;;;;;;4893756;29;20053;-67
2022/01/25 07:03:01;;;;;;;65.40;23.75;;;1.90;99.90;;;;;;4890998;29;20056;-61
2022/01/25 07:05:33;;;;;;;63.10;24.98;;;1.90;99.90;;;;;;4890968;29;20805;-66
2022/01/25 07:08:02;;;;;;;75.20;25.58;;;1.90;99.90;;;;;;4893865;29;20052;-64
2022/01/25 07:10:30;;;;;;;62.65;22.52;;;1.90;99.90;;;;;;4894146;29;20701;-67
2022/01/25 07:12:58;;;;;;;67.50;25.17;;;1.90;99.90;;;;;;4892092;29;20056;-67
2022/01/25 07:15:28;;;;;;;73.28;24.67;;;1.90;99.90;;;;;;4889752;29;20400;-62
2022/01/25 07:18:04;;;;;;;77.20;24.70;;;1.80;99.90;;;;;;4890915;29;20052;-60
2022/01/25 07:20:33;;;;;;;75.28;26.17;;;1.80;99.90;;;;;;4893898;29;20037;-59
2022/01/25 07:23:01;;;;;;;64.30;23.73;;;1.80;99.90;;;;;;4893654;29;20048;-60
2022/01/25 07:25:34;;;;;;;81.63;29.48;;;1.80;99.90;;;;;;4893076;29;20432;-60
2022/01/25 07:28:03;;;;;;;65.05;23.00;;;1.80;99.90;;;;;;4889530;29;20079;-60
2022/01/25 07:30:31;;;;;;;67.70;24.10;;;1.90;99.90;;;;;;4890935;29;20071;-59
2022/01/25 07:33:05;;;;;;;62.40;22.27;;;1.80;99.90;;;;;;4894082;29;20052;-59
2022/01/25 07:35:45;;;;;;;70.07;23.20;;;1.80;99.90;;;;;;4891896;29;20412;-59
2022/01/25 07:38:20;;;;;;;66.97;24.15;;;1.80;99.90;;;;;;4893452;29;20361;-60
2022/01/25 07:40:50;;;;;;;76.32;24.58;;;1.80;99.90;;;;;;4893632;29;20052;-60
2022/01/25 07:43:37;;;;;;;65.22;22.67;;;1.80;99.90;;;;;;4884216;29;20060;-62
2022/01/25 07:46:05;;;;;;;70.07;23.08;;;1.80;99.90;;;;;;4892370;29;20055;-62
2022/01/25 07:48:39;;;;;;;65.97;23.65;;;1.80;99.90;;;;;;4890210;29;20052;-65
2022/01/25 07:51:07;;;;;;;68.05;24.02;;;1.80;99.90;;;;;;4892569;29;20041;-63
2022/01/25 07:53:37;;;;;;;66.03;23.63;;;1.80;99.90;;;;;;4881888;29;20428;-62
2022/01/25 07:56:05;;;;;;;54.38;18.10;;;1.80;99.90;;;;;;4892519;29;20048;-60
2022/01/25 07:58:34;;;;;;;60.30;21.48;;;1.80;99.90;;;;;;4893188;29;20524;-63
2022/01/25 08:01:02;;;;;;;75.18;23.90;;;1.80;99.90;;;;;;4899017;29;20049;-62
2022/01/25 08:03:34;;;;;;;67.67;22.07;;;1.80;99.90;;;;;;4888782;29;20061;-60
2022/01/25 08:06:13;;;;;;;68.10;23.70;;;1.80;99.90;;;;;;4890374;29;20055;-65
2022/01/25 08:08:54;;;;;;;67.15;21.55;;;1.70;99.90;;;;;;4892505;29;20052;-61
2022/01/25 08:11:28;;;;;;;65.70;21.67;;;1.70;99.90;;;;;;4893345;29;20053;-65
2022/01/25 08:14:14;;;;;;;70.18;23.15;;;1.70;99.90;;;;;;4892966;29;20053;-64
2022/01/25 08:16:48;;;;;;;73.45;23.25;;;1.70;99.90;;;;;;4893258;29;20521;-60
2022/01/25 08:19:30;;;;;;;53.83;18.23;;;1.70;99.90;;;;;;4891337;29;20068;-65
2022/01/25 08:22:06;;;;;;;67.00;23.40;;;1.80;99.90;;;;;;4891610;29;20056;-60
2022/01/25 08:24:37;;;;;;;66.90;23.40;;;1.80;99.90;;;;;;4890988;29;20040;-59
2022/01/25 08:27:10;;;;;;;64.72;21.23;;;1.80;99.90;;;;;;4888233;29;20430;-59
2022/01/25 08:29:58;;;;;;;68.47;22.75;;;1.80;99.90;;;;;;4888541;29;20381;-60
2022/01/25 08:32:29;;;;;;;65.97;21.98;;;1.80;99.90;;;;;;4887214;29;20057;-60
2022/01/25 08:35:02;;;;;;;61.05;22.02;;;1.80;99.90;;;;;;4890109;29;20059;-59
2022/01/25 08:37:35;;;;;;;67.32;23.35;;;1.70;99.90;;;;;;4893064;29;20041;-58
2022/01/25 08:40:08;;;;;;;64.95;23.55;;;1.70;99.90;;;;;;4891276;29;20063;-57
2022/01/25 08:42:47;;;;;;;77.35;22.77;;;1.70;99.90;;;;;;4891311;29;20053;-59
2022/01/25 08:45:20;;;;;;;66.82;22.58;;;1.70;99.90;;;;;;4892979;29;20507;-58
2022/01/25 08:47:53;;;;;;;62.92;22.10;;;1.70;99.90;;;;;;4893654;29;20052;-59
2022/01/25 08:50:23;;;;;;;68.88;23.65;;;1.70;99.90;;;;;;4896867;29;20488;-58
2022/01/25 08:52:55;;;;;;;60.15;20.65;;;1.70;99.90;;;;;;4896333;29;20071;-58
2022/01/25 08:55:31;;;;;;;66.50;23.17;;;1.70;99.90;;;;;;4896597;29;20052;-58
2022/01/25 08:58:04;;;;;;;67.03;22.70;;;1.70;99.90;;;;;;4896398;29;20130;-59
2022/01/25 09:00:32;;;;;;;69.68;21.00;;;1.60;99.90;;;;;;4896617;29;20053;-59
2022/01/25 09:03:01;;;;;;;64.70;20.80;;;1.50;99.90;;;;;;4896455;29;20053;-59
2022/01/25 09:05:30;;;;;;;67.70;21.95;;;1.50;99.90;;;;;;4895452;29;20404;-60
2022/01/25 09:07:58;;;;;;;66.68;21.70;;;1.60;99.90;;;;;;4896301;29;20051;-61
2022/01/25 09:10:29;;;;;;;51.33;18.27;;;1.50;99.90;;;;;;4896398;29;20052;-59
2022/01/25 09:12:58;;;;;;;56.63;19.05;;;1.60;99.90;;;;;;4896217;29;20053;-60
2022/01/25 09:15:26;;;;;;;59.90;19.92;;;1.50;99.90;;;;;;4896477;29;20416;-59
2022/01/25 09:17:54;;;;;;;58.17;20.85;;;1.50;99.90;;;;;;4895969;29;20477;-62
2022/01/25 09:20:22;;;;;;;59.53;20.63;;;1.50;99.90;;;;;;4895327;29;20053;-62
2022/01/25 09:22:50;;;;;;;62.63;21.40;;;1.50;99.90;;;;;;4895878;29;20052;-65
2022/01/25 09:25:30;;;;;;;61.67;19.70;;;1.50;99.90;;;;;;4896042;29;20056;-63
2022/01/25 09:28:01;;;;;;;50.05;18.23;;;1.50;99.90;;;;;;4894832;29;20052;-60
2022/01/25 09:30:30;;;;;;;55.30;19.42;;;1.50;99.90;;;;;;4895921;29;20420;-58
2022/01/25 09:32:57;;;;;;;64.15;20.23;;;1.50;99.90;;;;;;4895640;29;20058;-59
2022/01/25 09:35:26;;;;;;;57.13;20.65;;;1.50;99.90;;;;;;4896091;29;20060;-62
2022/01/25 09:37:54;;;;;;;58.95;20.10;;;1.50;99.90;;;;;;4896207;29;20052;-65
2022/01/25 09:40:22;;;;;;;64.68;20.80;;;1.50;99.90;;;;;;4896077;29;20056;-65
2022/01/25 09:42:53;;;;;;;58.10;19.58;;;1.50;99.90;;;;;;4895497;29;20053;-62
2022/01/25 09:45:23;;;;;;;53.13;18.55;;;1.60;99.90;;;;;;4895678;29;20052;-61
2022/01/25 09:47:51;;;;;;;61.28;20.30;;;1.60;99.90;;;;;;4894660;29;20048;-63
2022/01/25 09:50:20;;;;;;;54.05;19.60;;;1.60;99.90;;;;;;4895617;29;20091;-64
2022/01/25 09:52:48;;;;;;;51.45;19.10;;;1.60;99.90;;;;;;4895466;29;20393;-66
2022/01/25 09:55:22;;;;;;;48.67;15.52;;;1.60;99.90;;;;;;4878902;29;20063;-59
2022/01/25 09:57:51;;;;;;;52.10;17.95;;;1.60;99.90;;;;;;4895392;29;20378;-60
2022/01/25 10:00:21;;;;;;;21.55;9.27;;;1.60;99.90;;;;;;4895591;29;20403;-59
2022/01/25 10:03:08;;;;;;;49.10;16.05;;;1.60;99.90;;;;;;4894019;29;20499;-59
2022/01/25 10:05:40;;;;;;;44.83;16.02;;;1.60;99.90;;;;;;4895681;29;20040;-60
2022/01/25 10:08:21;;;;;;;42.65;17.17;;;1.40;99.90;;;;;;4895313;29;20049;-58
2022/01/25 10:11:05;;;;;;;46.70;16.70;;;1.50;99.90;;;;;;4895577;29;20048;-63
2022/01/25 10:13:36;;;;;;;42.88;17.75;;;1.50;99.90;;;;;;4895027;29;20516;-60
2022/01/25 10:16:09;;;;;;;44.72;17.98;;;1.50;99.90;;;;;;4895213;29;20052;-60
2022/01/25 10:18:43;;;;;;;41.97;15.57;;;1.50;99.90;;;;;;4894127;29;20199;-59
2022/01/25 10:21:19;;;;;;;45.90;15.18;;;1.60;99.90;;;;;;4895389;29;20048;-61
2022/01/25 10:23:59;;;;;;;47.15;17.05;;;1.60;99.90;;;;;;4894843;29;20396;-62
2022/01/25 10:26:30;;;;;;;50.45;16.40;;;1.60;99.90;;;;;;4895060;29;20056;-63
2022/01/25 10:29:15;;;;;;;49.75;18.15;;;1.60;99.90;;;;;;4894728;29;20812;-58
2022/01/25 10:31:47;;;;;;;52.70;19.80;;;1.60;99.90;;;;;;4895185;29;20052;-62
2022/01/25 10:34:21;;;;;;;49.42;19.33;;;1.60;99.90;;;;;;4893601;29;20045;-60
2022/01/25 10:37:05;;;;;;;45.92;16.98;;;1.60;99.90;;;;;;4913421;29;20052;-64
2022/01/25 10:39:42;;;;;;;47.30;16.55;;;1.60;99.90;;;;;;4894908;29;20055;-60
2022/01/25 10:42:23;;;;;;;47.70;16.33;;;1.60;99.90;;;;;;4878728;29;20053;-61
2022/01/25 10:45:03;;;;;;;46.55;14.30;;;1.60;99.90;;;;;;4894568;29;20809;-59
2022/01/25 10:47:38;;;;;;;43.58;15.18;;;1.60;99.90;;;;;;4893428;29;20048;-60
2022/01/25 10:50:17;;;;;;;35.70;13.43;;;1.70;99.90;;;;;;4894434;29;20056;-61
2022/01/25 10:52:47;;;;;;;48.67;20.17;;;1.60;99.90;;;;;;4905990;29;20485;-59
2022/01/25 10:55:16;;;;;;;39.75;16.48;;;1.60;99.90;;;;;;4894532;29;20060;-59
2022/01/25 10:57:56;;;;;;;38.88;12.98;;;1.70;99.90;;;;;;4893213;29;20044;-58
2022/01/25 11:00:33;;;;;;;39.38;14.02;;;1.70;99.90;;;;;;4893284;29;20477;-60
2022/01/25 11:03:05;;;;;;;56.40;18.70;;;1.70;99.90;;;;;;4894051;29;20040;-60
2022/01/25 11:05:40;;;;;;;47.53;17.52;;;1.80;99.90;;;;;;4894662;29;20048;-58
2022/01/25 11:08:20;;;;;;;29.33;11.88;;;1.90;99.90;;;;;;4894212;29;20048;-59
2022/01/25 11:10:58;;;;;;;37.10;12.10;;;1.90;99.90;;;;;;4893590;29;20107;-59
2022/01/25 11:15:58;;;;;;;34.97;12.70;;;1.90;99.90;;;;;;4894063;29;20056;-59
2022/01/25 11:18:27;;;;;;;36.50;11.50;;;1.90;99.90;;;;;;4892759;29;20041;-58
2022/01/25 11:21:02;;;;;;;36.25;12.30;;;1.90;99.90;;;;;;4893959;29;20056;-59
2022/01/25 11:23:32;;;;;;;38.95;12.75;;;1.90;99.90;;;;;;4876886;29;20053;-58
2022/01/25 11:26:03;;;;;;;40.45;13.93;;;2.00;99.90;;;;;;4893921;29;20052;-59
2022/01/25 11:28:33;;;;;;;37.08;13.10;;;2.00;99.90;;;;;;4893453;29;20524;-60
2022/01/25 11:31:02;;;;;;;;;;;2.00;99.90;;;;;;4893276;29;20056;-60
2022/01/25 11:33:35;;;;;;;39.45;12.60;;;2.00;99.90;;;;;;4876815;29;19923;-60
2022/01/25 11:36:08;;;;;;;37.80;13.68;;;2.00;99.90;;;;;;4893767;29;20057;-61
2022/01/25 11:38:48;;;;;;;40.45;14.77;;;2.00;99.90;;;;;;4893750;29;20061;-60
2022/01/25 11:41:19;;;;;;;38.88;13.27;;;2.00;99.90;;;;;;4893873;29;20394;-62
2022/01/25 11:44:08;;;;;;;41.35;13.85;;;2.10;99.90;;;;;;4892223;29;20412;-59
2022/01/25 11:46:45;;;;;;;40.08;13.85;;;2.10;99.90;;;;;;4893628;29;20676;-60
2022/01/25 11:49:19;;;;;;;36.90;13.32;;;2.10;99.90;;;;;;4893420;29;20040;-62
2022/01/25 11:52:14;;;;;;;39.30;13.40;;;2.20;99.90;;;;;;4893476;29;20052;-61
2022/01/25 11:54:45;;;;;;;35.70;11.70;;;2.20;99.90;;;;;;4893168;29;20051;-62
2022/01/25 11:57:17;;;;;;;32.35;11.27;;;2.20;99.90;;;;;;4893585;29;20052;-63
2022/01/25 11:59:57;;;;;;;34.17;12.52;;;2.20;99.90;;;;;;4876832;29;20060;-63
2022/01/25 12:02:44;;;;;;;36.78;13.85;;;2.20;99.90;;;;;;4893447;29;20044;-60
2022/01/25 12:05:18;;;;;;;35.75;12.20;;;2.30;99.90;;;;;;4893593;29;20052;-60
2022/01/25 12:08:09;;;;;;;29.15;10.40;;;2.20;99.90;;;;;;4893238;29;20059;-60
2022/01/25 12:10:40;;;;;;;33.38;11.18;;;2.30;99.90;;;;;;4893427;29;20052;-64
2022/01/25 12:13:25;;;;;;;31.48;11.55;;;2.30;99.90;;;;;;4891993;29;20063;-61
2022/01/25 12:16:27;;;;;;;32.55;10.85;;;2.30;99.90;;;;;;4891140;29;20060;-62
2022/01/25 12:19:05;;;;;;;35.40;10.95;;;2.30;99.90;;;;;;4889586;29;20064;-64
2022/01/25 12:24:28;;;;;;;35.95;11.20;;;2.40;99.90;;;;;;4896091;29;20064;-64
2022/01/25 12:27:08;;;;;;;37.33;12.40;;;2.40;99.90;;;;;;4897189;29;20049;-62
2022/01/25 12:29:41;;;;;;;47.30;21.77;;;2.40;99.90;;;;;;4897928;29;20063;-59
2022/01/25 12:32:34;;;;;;;29.88;14.00;;;2.50;99.90;;;;;;4897059;29;20064;-63
2022/01/25 12:35:09;;;;;;;32.58;10.27;;;2.50;99.90;;;;;;4895708;29;20057;-64
2022/01/25 12:37:53;;;;;;;37.90;16.27;;;2.50;99.90;;;;;;4896901;29;20400;-59
2022/01/25 12:40:28;;;;;;;53.22;21.15;;;2.50;99.90;;;;;;4896765;29;20045;-61
2022/01/25 12:43:04;;;;;;;30.35;11.30;;;2.50;99.90;;;;;;4896777;29;20056;-59
2022/01/25 12:45:43;;;;;;;28.88;10.25;;;2.60;99.90;;;;;;4895754;29;20058;-64
2022/01/25 12:48:17;;;;;;;35.63;11.48;;;2.60;99.90;;;;;;4896697;29;20053;-66
2022/01/25 12:50:50;;;;;;;31.45;11.05;;;2.60;99.90;;;;;;4897014;29;20048;-62
2022/01/25 12:53:22;;;;;;;29.67;9.90;;;2.70;99.90;;;;;;4896415;29;20044;-63
2022/01/25 12:55:57;;;;;;;32.03;10.18;;;2.70;99.90;;;;;;4896789;29;20056;-63
2022/01/25 12:58:28;;;;;;;38.20;11.48;;;2.80;99.90;;;;;;4897007;29;20392;-60
2022/01/25 13:00:59;;;;;;;33.40;11.93;;;2.90;99.90;;;;;;4896739;29;20064;-62
2022/01/25 13:03:33;;;;;;;24.80;8.63;;;2.90;99.90;;;;;;4896379;29;20053;-61
2022/01/25 13:06:18;;;;;;;31.05;9.13;;;3.00;99.90;;;;;;4896525;29;20051;-66
2022/01/25 13:08:56;;;;;;;32.90;10.70;;;3.00;99.90;;;;;;4894929;29;20059;-61
2022/01/25 13:12:26;;;;;;;25.58;10.45;;;3.10;99.90;;;;;;4896303;29;20064;-65
2022/01/25 13:16:56;;;;;;;29.77;10.98;;;3.10;99.90;;;;;;4896284;29;20065;-62
2022/01/25 13:19:28;;;;;;;35.85;9.48;;;3.10;99.90;;;;;;4896107;29;20048;-61
2022/01/25 13:22:01;;;;;;;28.15;10.63;;;3.10;99.90;;;;;;4895564;29;20064;-60
2022/01/25 13:24:42;;;;;;;31.23;10.80;;;3.10;99.90;;;;;;4896139;29;20051;-62
2022/01/25 13:27:14;;;;;;;28.83;9.52;;;3.10;99.90;;;;;;4895791;29;20051;-59
2022/01/25 13:32:52;;;;;;;23.98;8.45;;;3.20;99.90;;;;;;4892902;29;20053;-59
2022/01/25 13:35:23;;;;;;;30.98;9.70;;;3.20;99.90;;;;;;4877027;29;20064;-61
2022/01/25 13:38:20;;;;;;;25.75;9.38;;;3.20;99.90;;;;;;4903827;29;20052;-62
2022/01/25 13:40:53;;;;;;;29.25;10.10;;;3.20;99.90;;;;;;4895930;29;20063;-58
2022/01/25 13:46:12;;;;;;;28.37;9.63;;;3.30;99.90;;;;;;4894668;29;20523;-61
2022/01/25 13:48:42;;;;;;;27.00;9.98;;;3.40;99.90;;;;;;4894474;29;20296;-61
2022/01/25 13:51:13;;;;;;;42.60;12.52;;;3.40;99.90;;;;;;4896203;29;20048;-60
2022/01/25 13:53:43;;;;;;;37.47;11.32;;;3.40;99.90;;;;;;4895464;29;20059;-63
2022/01/25 13:56:16;;;;;;;26.35;9.15;;;3.40;99.90;;;;;;4894618;29;20497;-59
2022/01/25 13:58:49;;;;;;;31.17;10.50;;;3.40;99.90;;;;;;4895434;29;20500;-59
2022/01/25 14:01:21;;;;;;;32.47;10.88;;;3.50;99.90;;;;;;4895652;29;20076;-60
2022/01/25 14:03:56;;;;;;;28.35;11.52;;;3.50;99.90;;;;;;4894182;29;20052;-61
2022/01/25 14:06:40;;;;;;;28.48;9.38;;;3.50;99.90;;;;;;4893127;29;20048;-59
2022/01/25 14:09:42;;;;;;;34.33;13.43;;;3.50;99.90;;;;;;4892119;29;20048;-59
2022/01/25 14:23:23;;;;;;;33.25;10.18;;;3.50;99.90;;;;;;4895205;29;20559;-60
2022/01/25 14:25:59;;;;;;;32.08;10.32;;;3.50;99.90;;;;;;4895401;29;20049;-61
2022/01/25 14:28:27;;;;;;;38.05;11.75;;;3.50;99.90;;;;;;4893471;29;20053;-58
2022/01/25 14:30:57;;;;;;;28.75;10.63;;;3.60;99.90;;;;;;4893696;29;20072;-58
2022/01/25 14:33:28;;;;;;;36.70;11.75;;;3.60;99.90;;;;;;4894668;29;20055;-61
2022/01/25 14:36:00;;;;;;;33.92;10.60;;;3.60;99.90;;;;;;4894889;29;20053;-59
2022/01/25 14:38:31;;;;;;;29.33;11.02;;;3.70;99.90;;;;;;4894877;29;20064;-60
2022/01/25 14:41:12;;;;;;;28.85;9.82;;;3.70;99.90;;;;;;4893648;29;20044;-59
2022/01/25 14:43:57;;;;;;;21.20;9.50;;;3.70;99.90;;;;;;4893316;29;20060;-59
2022/01/25 14:46:32;;;;;;;25.67;10.48;;;3.70;99.90;;;;;;4862276;29;20049;-60
2022/01/25 14:49:31;;;;;;;29.20;10.80;;;3.70;99.90;;;;;;4893240;29;20048;-61
2022/01/25 14:52:05;;;;;;;30.25;11.27;;;3.80;99.90;;;;;;4894019;29;20056;-60
2022/01/25 14:54:38;;;;;;;33.65;12.15;;;3.80;99.90;;;;;;4894324;29;20053;-60
2022/01/25 14:57:13;;;;;;;31.50;11.30;;;3.80;99.90;;;;;;4894775;29;20056;-60
2022/01/25 14:59:47;;;;;;;34.20;11.13;;;3.80;99.90;;;;;;4894582;29;20059;-62
2022/01/25 15:02:22;;;;;;;31.30;11.40;;;3.80;99.90;;;;;;4893063;29;20052;-63
2022/01/25 15:04:54;;;;;;;29.38;10.20;;;3.80;99.90;;;;;;4893384;29;20053;-60
2022/01/25 15:07:25;;;;;;;35.10;12.10;;;3.80;99.90;;;;;;4894848;29;20075;-60
2022/01/25 15:10:00;;;;;;;30.65;11.57;;;3.80;99.90;;;;;;4894808;29;20056;-60
2022/01/25 15:12:35;;;;;;;;;;;3.80;99.90;;;;;;4894510;29;20492;-58
2022/01/25 15:17:37;;;;;;;37.75;14.43;;;3.80;99.90;;;;;;4894093;29;20504;-59
2022/01/25 15:20:08;;;;;;;40.67;13.40;;;3.80;99.90;;;;;;4894286;29;20060;-57
2022/01/25 15:22:36;;;;;;;30.17;13.77;;;3.80;99.90;;;;;;4894206;29;20045;-58
2022/01/25 15:25:05;;;;;;;31.15;11.90;;;3.80;99.90;;;;;;4892893;29;20040;-59
2022/01/25 15:27:33;;;;;;;29.70;12.52;;;3.80;99.90;;;;;;4893667;29;20053;-59